sensor_id;sensor_type;location;lat;lon;timestamp;P1;durP1;ratioP1;P2;durP2;ratioP2
20391;SDS011;10355;53.688;10.078;2023-04-24T00:01:56;2.15;;;1.95;;
20391;SDS011;10355;53.688;10.078;2023-04-24T00:04:41;3.88;;;2.38;;
20391;SDS011;10355;53.688;10.078;2023-04-24T00:07:27;2.95;;;1.95;;
20391;SDS011;10355;53.688;10.078;2023-04-24T00:10:09;3.03;;;2.25;;
20391;SDS011;10355;53.688;10.078;2023-04-24T00:12:52;4.03;;;2.00;;
20391;SDS011;10355;53.688;10.078;2023-04-24T00:15:35;4.15;;;2.40;;
20391;SDS011;10355;53.688;10.078;2023-04-24T00:18:18;2.78;;;2.30;;
20391;SDS011;10355;53.688;10.078;2023-04-24T00:21:02;3.70;;;2.30;;
20391;SDS011;10355;53.688;10.078;2023-04-24T00:23:45;4.07;;;2.35;;
20391;SDS011;10355;53.688;10.078;2023-04-24T00:26:27;2.90;;;2.00;;
20391;SDS011;10355;53.688;10.078;2023-04-24T00:29:10;2.67;;;2.22;;
20391;SDS011;10355;53.688;10.078;2023-04-24T00:31:53;2.75;;;2.20;;
20391;SDS011;10355;53.688;10.078;2023-04-24T00:34:35;3.03;;;2.25;;
20391;SDS011;10355;53.688;10.078;2023-04-24T00:37:19;3.63;;;2.05;;
20391;SDS011;10355;53.688;10.078;2023-04-24T00:40:03;3.35;;;2.30;;
20391;SDS011;10355;53.688;10.078;2023-04-24T00:42:47;2.67;;;2.13;;
20391;SDS011;10355;53.688;10.078;2023-04-24T00:45:30;3.47;;;2.47;;
20391;SDS011;10355;53.688;10.078;2023-04-24T00:48:13;4.07;;;2.60;;
20391;SDS011;10355;53.688;10.078;2023-04-24T00:50:57;4.20;;;2.58;;
20391;SDS011;10355;53.688;10.078;2023-04-24T00:53:41;4.43;;;2.80;;
20391;SDS011;10355;53.688;10.078;2023-04-24T00:56:24;3.63;;;2.35;;
20391;SDS011;10355;53.688;10.078;2023-04-24T00:59:06;3.63;;;2.70;;
20391;SDS011;10355;53.688;10.078;2023-04-24T01:01:49;3.10;;;2.25;;
20391;SDS011;10355;53.688;10.078;2023-04-24T01:04:32;5.30;;;2.42;;
20391;SDS011;10355;53.688;10.078;2023-04-24T01:07:15;3.22;;;2.53;;
20391;SDS011;10355;53.688;10.078;2023-04-24T01:09:59;4.07;;;2.50;;
20391;SDS011;10355;53.688;10.078;2023-04-24T01:12:42;3.20;;;2.50;;
20391;SDS011;10355;53.688;10.078;2023-04-24T01:15:26;5.72;;;2.60;;
20391;SDS011;10355;53.688;10.078;2023-04-24T01:18:09;5.10;;;2.85;;
20391;SDS011;10355;53.688;10.078;2023-04-24T01:20:53;3.55;;;3.00;;
20391;SDS011;10355;53.688;10.078;2023-04-24T01:23:39;4.75;;;3.42;;
20391;SDS011;10355;53.688;10.078;2023-04-24T01:26:22;3.50;;;3.03;;
20391;SDS011;10355;53.688;10.078;2023-04-24T01:29:06;4.13;;;2.78;;
20391;SDS011;10355;53.688;10.078;2023-04-24T01:31:50;3.70;;;2.90;;
20391;SDS011;10355;53.688;10.078;2023-04-24T01:34:33;4.15;;;2.60;;
20391;SDS011;10355;53.688;10.078;2023-04-24T01:37:16;3.60;;;2.65;;
20391;SDS011;10355;53.688;10.078;2023-04-24T01:40:00;4.53;;;3.15;;
20391;SDS011;10355;53.688;10.078;2023-04-24T01:42:43;4.45;;;2.70;;
20391;SDS011;10355;53.688;10.078;2023-04-24T01:45:27;2.80;;;2.53;;
20391;SDS011;10355;53.688;10.078;2023-04-24T01:48:10;4.22;;;2.75;;
20391;SDS011;10355;53.688;10.078;2023-04-24T01:50:53;3.40;;;2.72;;
20391;SDS011;10355;53.688;10.078;2023-04-24T01:53:36;4.25;;;2.50;;
20391;SDS011;10355;53.688;10.078;2023-04-24T01:56:20;3.85;;;2.65;;
20391;SDS011;10355;53.688;10.078;2023-04-24T01:59:04;3.65;;;2.40;;
20391;SDS011;10355;53.688;10.078;2023-04-24T02:01:47;3.70;;;2.65;;
20391;SDS011;10355;53.688;10.078;2023-04-24T02:04:33;2.30;;;1.90;;
20391;SDS011;10355;53.688;10.078;2023-04-24T02:07:16;2.60;;;2.20;;
20391;SDS011;10355;53.688;10.078;2023-04-24T02:09:58;5.20;;;2.20;;
20391;SDS011;10355;53.688;10.078;2023-04-24T02:12:42;3.75;;;2.10;;
20391;SDS011;10355;53.688;10.078;2023-04-24T02:15:25;2.92;;;2.10;;
20391;SDS011;10355;53.688;10.078;2023-04-24T02:18:08;2.53;;;1.70;;
20391;SDS011;10355;53.688;10.078;2023-04-24T02:20:51;2.15;;;1.60;;
20391;SDS011;10355;53.688;10.078;2023-04-24T02:23:34;2.10;;;1.58;;
20391;SDS011;10355;53.688;10.078;2023-04-24T02:26:17;2.38;;;1.60;;
20391;SDS011;10355;53.688;10.078;2023-04-24T02:29:01;2.00;;;1.35;;
20391;SDS011;10355;53.688;10.078;2023-04-24T02:31:43;2.95;;;1.48;;
20391;SDS011;10355;53.688;10.078;2023-04-24T02:34:28;1.77;;;1.42;;
20391;SDS011;10355;53.688;10.078;2023-04-24T02:37:13;1.50;;;1.10;;
20391;SDS011;10355;53.688;10.078;2023-04-24T02:39:57;2.80;;;1.30;;
20391;SDS011;10355;53.688;10.078;2023-04-24T02:42:40;1.30;;;1.08;;
20391;SDS011;10355;53.688;10.078;2023-04-24T02:45:24;1.23;;;1.00;;
20391;SDS011;10355;53.688;10.078;2023-04-24T02:48:07;1.20;;;1.10;;
20391;SDS011;10355;53.688;10.078;2023-04-24T02:50:50;1.23;;;1.10;;
20391;SDS011;10355;53.688;10.078;2023-04-24T02:53:33;1.50;;;1.20;;
20391;SDS011;10355;53.688;10.078;2023-04-24T02:56:16;3.58;;;1.60;;
20391;SDS011;10355;53.688;10.078;2023-04-24T02:58:58;2.15;;;1.58;;
20391;SDS011;10355;53.688;10.078;2023-04-24T03:01:42;2.33;;;1.40;;
20391;SDS011;10355;53.688;10.078;2023-04-24T03:04:25;1.42;;;1.20;;
20391;SDS011;10355;53.688;10.078;2023-04-24T03:07:08;1.45;;;1.30;;
20391;SDS011;10355;53.688;10.078;2023-04-24T03:09:51;1.50;;;1.38;;
20391;SDS011;10355;53.688;10.078;2023-04-24T03:12:34;3.28;;;1.30;;
20391;SDS011;10355;53.688;10.078;2023-04-24T03:15:17;1.95;;;1.48;;
20391;SDS011;10355;53.688;10.078;2023-04-24T03:18:01;1.75;;;1.35;;
20391;SDS011;10355;53.688;10.078;2023-04-24T03:20:45;2.17;;;1.40;;
20391;SDS011;10355;53.688;10.078;2023-04-24T03:23:28;4.63;;;1.70;;
20391;SDS011;10355;53.688;10.078;2023-04-24T03:26:11;1.85;;;1.38;;
20391;SDS011;10355;53.688;10.078;2023-04-24T03:29:03;1.30;;;1.20;;
20391;SDS011;10355;53.688;10.078;2023-04-24T03:31:47;3.83;;;1.23;;
20391;SDS011;10355;53.688;10.078;2023-04-24T03:34:31;2.30;;;1.38;;
20391;SDS011;10355;53.688;10.078;2023-04-24T03:37:14;1.55;;;1.23;;
20391;SDS011;10355;53.688;10.078;2023-04-24T03:40:04;1.50;;;1.05;;
20391;SDS011;10355;53.688;10.078;2023-04-24T03:42:49;1.13;;;1.00;;
20391;SDS011;10355;53.688;10.078;2023-04-24T03:45:32;1.20;;;1.00;;
20391;SDS011;10355;53.688;10.078;2023-04-24T03:48:15;1.02;;;0.90;;
20391;SDS011;10355;53.688;10.078;2023-04-24T03:51:00;1.27;;;1.00;;
20391;SDS011;10355;53.688;10.078;2023-04-24T03:53:44;2.40;;;1.10;;
20391;SDS011;10355;53.688;10.078;2023-04-24T03:56:30;2.67;;;0.80;;
20391;SDS011;10355;53.688;10.078;2023-04-24T03:59:12;1.52;;;0.95;;
20391;SDS011;10355;53.688;10.078;2023-04-24T04:01:58;1.92;;;0.80;;
20391;SDS011;10355;53.688;10.078;2023-04-24T04:04:41;2.20;;;1.00;;
20391;SDS011;10355;53.688;10.078;2023-04-24T04:07:27;1.48;;;0.90;;
20391;SDS011;10355;53.688;10.078;2023-04-24T04:10:11;2.15;;;0.77;;
20391;SDS011;10355;53.688;10.078;2023-04-24T04:12:53;2.38;;;0.90;;
20391;SDS011;10355;53.688;10.078;2023-04-24T04:15:36;1.23;;;0.80;;
20391;SDS011;10355;53.688;10.078;2023-04-24T04:18:19;1.63;;;0.90;;
20391;SDS011;10355;53.688;10.078;2023-04-24T04:21:02;0.85;;;0.80;;
20391;SDS011;10355;53.688;10.078;2023-04-24T04:23:46;1.70;;;0.90;;
20391;SDS011;10355;53.688;10.078;2023-04-24T04:26:33;0.80;;;0.80;;
20391;SDS011;10355;53.688;10.078;2023-04-24T04:29:19;1.95;;;0.70;;
20391;SDS011;10355;53.688;10.078;2023-04-24T04:32:04;0.80;;;0.70;;
20391;SDS011;10355;53.688;10.078;2023-04-24T04:34:47;0.80;;;0.80;;
20391;SDS011;10355;53.688;10.078;2023-04-24T04:37:31;1.13;;;0.93;;
20391;SDS011;10355;53.688;10.078;2023-04-24T04:40:27;0.90;;;0.60;;
20391;SDS011;10355;53.688;10.078;2023-04-24T04:43:16;1.00;;;0.80;;
20391;SDS011;10355;53.688;10.078;2023-04-24T04:46:04;1.17;;;0.70;;
20391;SDS011;10355;53.688;10.078;2023-04-24T04:49:15;1.33;;;0.70;;
20391;SDS011;10355;53.688;10.078;2023-04-24T04:51:59;1.38;;;0.60;;
20391;SDS011;10355;53.688;10.078;2023-04-24T04:54:42;0.70;;;0.63;;
20391;SDS011;10355;53.688;10.078;2023-04-24T04:57:26;0.70;;;0.65;;
20391;SDS011;10355;53.688;10.078;2023-04-24T05:00:10;1.02;;;0.65;;
20391;SDS011;10355;53.688;10.078;2023-04-24T05:03:00;1.75;;;0.73;;
20391;SDS011;10355;53.688;10.078;2023-04-24T05:06:02;1.85;;;0.80;;
20391;SDS011;10355;53.688;10.078;2023-04-24T05:08:47;2.05;;;0.52;;
20391;SDS011;10355;53.688;10.078;2023-04-24T05:11:40;0.85;;;0.80;;
20391;SDS011;10355;53.688;10.078;2023-04-24T05:14:24;1.30;;;0.60;;
20391;SDS011;10355;53.688;10.078;2023-04-24T05:17:07;1.30;;;0.73;;
20391;SDS011;10355;53.688;10.078;2023-04-24T05:19:50;0.65;;;0.50;;
20391;SDS011;10355;53.688;10.078;2023-04-24T05:22:33;1.55;;;0.60;;
20391;SDS011;10355;53.688;10.078;2023-04-24T05:25:16;0.75;;;0.60;;
20391;SDS011;10355;53.688;10.078;2023-04-24T05:28:10;0.80;;;0.50;;
20391;SDS011;10355;53.688;10.078;2023-04-24T05:30:54;1.58;;;0.60;;
20391;SDS011;10355;53.688;10.078;2023-04-24T05:33:38;0.77;;;0.50;;
20391;SDS011;10355;53.688;10.078;2023-04-24T05:36:21;0.60;;;0.60;;
20391;SDS011;10355;53.688;10.078;2023-04-24T05:39:04;1.75;;;0.60;;
20391;SDS011;10355;53.688;10.078;2023-04-24T05:41:48;1.08;;;0.50;;
20391;SDS011;10355;53.688;10.078;2023-04-24T05:44:31;0.50;;;0.50;;
20391;SDS011;10355;53.688;10.078;2023-04-24T05:47:15;1.77;;;0.63;;
20391;SDS011;10355;53.688;10.078;2023-04-24T05:49:58;0.60;;;0.55;;
20391;SDS011;10355;53.688;10.078;2023-04-24T05:52:41;0.43;;;0.43;;
20391;SDS011;10355;53.688;10.078;2023-04-24T05:55:36;1.35;;;0.70;;
20391;SDS011;10355;53.688;10.078;2023-04-24T05:58:19;1.00;;;0.70;;
20391;SDS011;10355;53.688;10.078;2023-04-24T06:01:03;0.75;;;0.60;;
20391;SDS011;10355;53.688;10.078;2023-04-24T06:03:48;1.02;;;0.60;;
20391;SDS011;10355;53.688;10.078;2023-04-24T06:06:31;0.63;;;0.60;;
20391;SDS011;10355;53.688;10.078;2023-04-24T06:09:15;1.02;;;0.73;;
20391;SDS011;10355;53.688;10.078;2023-04-24T06:11:59;0.90;;;0.70;;
20391;SDS011;10355;53.688;10.078;2023-04-24T06:14:51;1.50;;;0.82;;
20391;SDS011;10355;53.688;10.078;2023-04-24T06:17:40;1.30;;;0.70;;
20391;SDS011;10355;53.688;10.078;2023-04-24T06:20:24;0.80;;;0.80;;
20391;SDS011;10355;53.688;10.078;2023-04-24T06:23:07;0.95;;;0.82;;
20391;SDS011;10355;53.688;10.078;2023-04-24T06:25:50;1.77;;;0.90;;
20391;SDS011;10355;53.688;10.078;2023-04-24T06:28:33;1.23;;;0.90;;
20391;SDS011;10355;53.688;10.078;2023-04-24T06:31:16;2.58;;;0.75;;
20391;SDS011;10355;53.688;10.078;2023-04-24T06:33:58;2.28;;;0.82;;
20391;SDS011;10355;53.688;10.078;2023-04-24T06:36:43;0.70;;;0.70;;
20391;SDS011;10355;53.688;10.078;2023-04-24T06:39:26;3.20;;;0.93;;
20391;SDS011;10355;53.688;10.078;2023-04-24T06:42:09;0.93;;;0.70;;
20391;SDS011;10355;53.688;10.078;2023-04-24T06:44:51;1.38;;;0.80;;
20391;SDS011;10355;53.688;10.078;2023-04-24T06:47:34;1.73;;;0.80;;
20391;SDS011;10355;53.688;10.078;2023-04-24T06:50:17;1.25;;;0.73;;
20391;SDS011;10355;53.688;10.078;2023-04-24T06:53:01;2.08;;;0.90;;
20391;SDS011;10355;53.688;10.078;2023-04-24T06:55:43;1.45;;;0.90;;
20391;SDS011;10355;53.688;10.078;2023-04-24T06:58:27;1.20;;;0.90;;
20391;SDS011;10355;53.688;10.078;2023-04-24T07:01:10;2.22;;;0.98;;
20391;SDS011;10355;53.688;10.078;2023-04-24T07:03:52;1.50;;;0.85;;
20391;SDS011;10355;53.688;10.078;2023-04-24T07:06:35;1.13;;;0.90;;
20391;SDS011;10355;53.688;10.078;2023-04-24T07:09:20;2.33;;;1.00;;
20391;SDS011;10355;53.688;10.078;2023-04-24T07:12:03;1.73;;;0.80;;
20391;SDS011;10355;53.688;10.078;2023-04-24T07:14:46;2.13;;;0.88;;
20391;SDS011;10355;53.688;10.078;2023-04-24T07:17:28;1.30;;;0.80;;
20391;SDS011;10355;53.688;10.078;2023-04-24T07:20:11;1.45;;;1.10;;
20391;SDS011;10355;53.688;10.078;2023-04-24T07:22:55;1.17;;;0.98;;
20391;SDS011;10355;53.688;10.078;2023-04-24T07:25:39;1.05;;;0.80;;
20391;SDS011;10355;53.688;10.078;2023-04-24T07:28:22;1.25;;;1.10;;
20391;SDS011;10355;53.688;10.078;2023-04-24T07:31:05;2.63;;;1.10;;
20391;SDS011;10355;53.688;10.078;2023-04-24T07:33:48;1.40;;;1.20;;
20391;SDS011;10355;53.688;10.078;2023-04-24T07:36:30;1.25;;;1.02;;
20391;SDS011;10355;53.688;10.078;2023-04-24T07:39:13;1.40;;;1.10;;
20391;SDS011;10355;53.688;10.078;2023-04-24T07:41:58;1.30;;;1.20;;
20391;SDS011;10355;53.688;10.078;2023-04-24T07:44:41;1.65;;;1.00;;
20391;SDS011;10355;53.688;10.078;2023-04-24T07:47:23;1.98;;;1.17;;
20391;SDS011;10355;53.688;10.078;2023-04-24T07:50:06;3.22;;;1.30;;
20391;SDS011;10355;53.688;10.078;2023-04-24T07:52:49;2.25;;;1.33;;
20391;SDS011;10355;53.688;10.078;2023-04-24T07:55:32;2.53;;;1.10;;
20391;SDS011;10355;53.688;10.078;2023-04-24T07:58:16;2.70;;;1.40;;
20391;SDS011;10355;53.688;10.078;2023-04-24T08:00:59;1.58;;;1.45;;
20391;SDS011;10355;53.688;10.078;2023-04-24T08:03:42;2.30;;;1.33;;
20391;SDS011;10355;53.688;10.078;2023-04-24T08:06:25;3.33;;;1.60;;
20391;SDS011;10355;53.688;10.078;2023-04-24T08:09:11;2.40;;;1.60;;
20391;SDS011;10355;53.688;10.078;2023-04-24T08:11:54;3.95;;;1.50;;
20391;SDS011;10355;53.688;10.078;2023-04-24T08:14:39;1.65;;;1.50;;
20391;SDS011;10355;53.688;10.078;2023-04-24T08:17:22;2.08;;;1.40;;
20391;SDS011;10355;53.688;10.078;2023-04-24T08:20:05;1.90;;;1.70;;
20391;SDS011;10355;53.688;10.078;2023-04-24T08:22:51;2.45;;;1.67;;
20391;SDS011;10355;53.688;10.078;2023-04-24T08:25:35;2.40;;;1.90;;
20391;SDS011;10355;53.688;10.078;2023-04-24T08:28:21;2.58;;;1.88;;
20391;SDS011;10355;53.688;10.078;2023-04-24T08:31:05;3.85;;;1.85;;
20391;SDS011;10355;53.688;10.078;2023-04-24T08:33:48;2.67;;;1.95;;
20391;SDS011;10355;53.688;10.078;2023-04-24T08:36:31;1.77;;;1.58;;
20391;SDS011;10355;53.688;10.078;2023-04-24T08:39:27;2.97;;;2.10;;
20391;SDS011;10355;53.688;10.078;2023-04-24T08:42:09;2.60;;;2.03;;
20391;SDS011;10355;53.688;10.078;2023-04-24T08:44:55;3.78;;;2.00;;
20391;SDS011;10355;53.688;10.078;2023-04-24T08:47:39;3.22;;;2.17;;
20391;SDS011;10355;53.688;10.078;2023-04-24T08:50:22;2.67;;;2.30;;
20391;SDS011;10355;53.688;10.078;2023-04-24T08:53:05;2.40;;;2.20;;
20391;SDS011;10355;53.688;10.078;2023-04-24T08:55:49;4.28;;;2.17;;
20391;SDS011;10355;53.688;10.078;2023-04-24T08:58:33;3.38;;;2.40;;
20391;SDS011;10355;53.688;10.078;2023-04-24T09:01:15;2.35;;;2.00;;
20391;SDS011;10355;53.688;10.078;2023-04-24T09:04:00;2.75;;;2.30;;
20391;SDS011;10355;53.688;10.078;2023-04-24T09:06:44;3.42;;;2.20;;
20391;SDS011;10355;53.688;10.078;2023-04-24T09:09:28;3.15;;;2.60;;
20391;SDS011;10355;53.688;10.078;2023-04-24T09:12:12;3.78;;;1.90;;
20391;SDS011;10355;53.688;10.078;2023-04-24T09:14:54;2.30;;;2.05;;
20391;SDS011;10355;53.688;10.078;2023-04-24T09:17:38;3.08;;;2.20;;
20391;SDS011;10355;53.688;10.078;2023-04-24T09:20:22;2.63;;;2.15;;
20391;SDS011;10355;53.688;10.078;2023-04-24T09:23:05;4.72;;;2.40;;
20391;SDS011;10355;53.688;10.078;2023-04-24T09:25:48;2.55;;;2.35;;
20391;SDS011;10355;53.688;10.078;2023-04-24T09:28:36;3.53;;;2.67;;
20391;SDS011;10355;53.688;10.078;2023-04-24T09:31:20;4.82;;;2.88;;
20391;SDS011;10355;53.688;10.078;2023-04-24T09:34:04;3.25;;;2.60;;
20391;SDS011;10355;53.688;10.078;2023-04-24T09:36:50;3.08;;;2.65;;
20391;SDS011;10355;53.688;10.078;2023-04-24T09:39:33;2.90;;;2.60;;
20391;SDS011;10355;53.688;10.078;2023-04-24T09:42:16;3.33;;;2.60;;
20391;SDS011;10355;53.688;10.078;2023-04-24T09:44:59;4.05;;;2.90;;
20391;SDS011;10355;53.688;10.078;2023-04-24T09:47:55;4.57;;;2.80;;
20391;SDS011;10355;53.688;10.078;2023-04-24T09:50:37;3.08;;;2.67;;
20391;SDS011;10355;53.688;10.078;2023-04-24T09:53:24;3.63;;;2.47;;
20391;SDS011;10355;53.688;10.078;2023-04-24T09:56:07;3.22;;;2.40;;
20391;SDS011;10355;53.688;10.078;2023-04-24T09:58:50;3.13;;;2.47;;
20391;SDS011;10355;53.688;10.078;2023-04-24T10:01:33;3.58;;;2.50;;
20391;SDS011;10355;53.688;10.078;2023-04-24T10:04:16;3.17;;;2.63;;
20391;SDS011;10355;53.688;10.078;2023-04-24T10:07:00;4.18;;;2.67;;
20391;SDS011;10355;53.688;10.078;2023-04-24T10:09:49;2.97;;;2.67;;
20391;SDS011;10355;53.688;10.078;2023-04-24T10:12:32;3.38;;;2.72;;
20391;SDS011;10355;53.688;10.078;2023-04-24T10:15:15;3.40;;;2.70;;
20391;SDS011;10355;53.688;10.078;2023-04-24T10:18:01;4.38;;;2.67;;
20391;SDS011;10355;53.688;10.078;2023-04-24T10:20:47;4.07;;;2.90;;
20391;SDS011;10355;53.688;10.078;2023-04-24T10:23:30;5.03;;;3.25;;
20391;SDS011;10355;53.688;10.078;2023-04-24T10:26:14;4.80;;;3.25;;
20391;SDS011;10355;53.688;10.078;2023-04-24T10:28:59;4.47;;;3.08;;
20391;SDS011;10355;53.688;10.078;2023-04-24T10:31:42;5.40;;;3.55;;
20391;SDS011;10355;53.688;10.078;2023-04-24T10:34:27;5.50;;;3.53;;
20391;SDS011;10355;53.688;10.078;2023-04-24T10:37:10;5.78;;;3.80;;
20391;SDS011;10355;53.688;10.078;2023-04-24T10:39:52;4.32;;;3.50;;
20391;SDS011;10355;53.688;10.078;2023-04-24T10:42:40;6.22;;;3.60;;
20391;SDS011;10355;53.688;10.078;2023-04-24T10:45:24;6.75;;;3.60;;
20391;SDS011;10355;53.688;10.078;2023-04-24T10:48:07;6.63;;;4.30;;
20391;SDS011;10355;53.688;10.078;2023-04-24T10:50:55;7.10;;;4.43;;
20391;SDS011;10355;53.688;10.078;2023-04-24T10:53:38;6.78;;;4.18;;
20391;SDS011;10355;53.688;10.078;2023-04-24T10:56:21;6.55;;;4.45;;
20391;SDS011;10355;53.688;10.078;2023-04-24T10:59:05;7.90;;;4.55;;
20391;SDS011;10355;53.688;10.078;2023-04-24T11:01:52;7.13;;;4.35;;
20391;SDS011;10355;53.688;10.078;2023-04-24T11:04:35;7.30;;;4.95;;
20391;SDS011;10355;53.688;10.078;2023-04-24T11:07:19;6.43;;;4.68;;
20391;SDS011;10355;53.688;10.078;2023-04-24T11:10:03;6.63;;;4.80;;
20391;SDS011;10355;53.688;10.078;2023-04-24T11:12:46;7.53;;;4.60;;
20391;SDS011;10355;53.688;10.078;2023-04-24T11:15:30;7.72;;;4.82;;
20391;SDS011;10355;53.688;10.078;2023-04-24T11:18:13;7.55;;;4.95;;
20391;SDS011;10355;53.688;10.078;2023-04-24T11:20:56;9.00;;;5.32;;
20391;SDS011;10355;53.688;10.078;2023-04-24T11:23:39;10.10;;;5.35;;
20391;SDS011;10355;53.688;10.078;2023-04-24T11:26:22;6.30;;;4.53;;
20391;SDS011;10355;53.688;10.078;2023-04-24T11:29:06;6.65;;;5.07;;
20391;SDS011;10355;53.688;10.078;2023-04-24T11:31:51;7.35;;;4.90;;
20391;SDS011;10355;53.688;10.078;2023-04-24T11:34:34;7.78;;;4.72;;
20391;SDS011;10355;53.688;10.078;2023-04-24T11:37:16;6.53;;;4.60;;
20391;SDS011;10355;53.688;10.078;2023-04-24T11:39:59;7.95;;;5.13;;
20391;SDS011;10355;53.688;10.078;2023-04-24T11:42:44;9.43;;;5.05;;
20391;SDS011;10355;53.688;10.078;2023-04-24T11:45:27;6.75;;;4.15;;
20391;SDS011;10355;53.688;10.078;2023-04-24T11:48:11;6.18;;;4.38;;
20391;SDS011;10355;53.688;10.078;2023-04-24T11:50:54;7.45;;;4.60;;
20391;SDS011;10355;53.688;10.078;2023-04-24T11:53:37;5.82;;;4.05;;
20391;SDS011;10355;53.688;10.078;2023-04-24T11:56:20;6.53;;;4.35;;
20391;SDS011;10355;53.688;10.078;2023-04-24T11:59:03;5.00;;;3.80;;
20391;SDS011;10355;53.688;10.078;2023-04-24T12:01:46;7.85;;;4.63;;
20391;SDS011;10355;53.688;10.078;2023-04-24T12:04:39;8.10;;;4.18;;
20391;SDS011;10355;53.688;10.078;2023-04-24T12:07:23;6.60;;;4.40;;
20391;SDS011;10355;53.688;10.078;2023-04-24T12:10:06;6.13;;;4.30;;
20391;SDS011;10355;53.688;10.078;2023-04-24T12:12:50;7.40;;;4.57;;
20391;SDS011;10355;53.688;10.078;2023-04-24T12:15:33;7.93;;;4.88;;
20391;SDS011;10355;53.688;10.078;2023-04-24T12:18:16;6.32;;;4.60;;
20391;SDS011;10355;53.688;10.078;2023-04-24T12:24:07;5.65;;;4.10;;
20391;SDS011;10355;53.688;10.078;2023-04-24T12:26:50;5.43;;;3.70;;
20391;SDS011;10355;53.688;10.078;2023-04-24T12:29:33;5.70;;;3.45;;
20391;SDS011;10355;53.688;10.078;2023-04-24T12:32:15;4.97;;;3.67;;
20391;SDS011;10355;53.688;10.078;2023-04-24T12:34:58;7.22;;;3.85;;
20391;SDS011;10355;53.688;10.078;2023-04-24T12:37:42;4.15;;;3.35;;
20391;SDS011;10355;53.688;10.078;2023-04-24T12:40:29;4.60;;;3.55;;
20391;SDS011;10355;53.688;10.078;2023-04-24T12:43:13;4.93;;;3.50;;
20391;SDS011;10355;53.688;10.078;2023-04-24T12:45:57;5.90;;;3.28;;
20391;SDS011;10355;53.688;10.078;2023-04-24T12:48:40;6.95;;;3.65;;
20391;SDS011;10355;53.688;10.078;2023-04-24T12:51:23;7.28;;;3.47;;
20391;SDS011;10355;53.688;10.078;2023-04-24T12:54:06;5.47;;;3.42;;
20391;SDS011;10355;53.688;10.078;2023-04-24T12:56:50;6.43;;;3.63;;
20391;SDS011;10355;53.688;10.078;2023-04-24T12:59:33;5.00;;;3.47;;
20391;SDS011;10355;53.688;10.078;2023-04-24T13:02:15;5.32;;;3.42;;
20391;SDS011;10355;53.688;10.078;2023-04-24T13:04:59;4.72;;;3.70;;
20391;SDS011;10355;53.688;10.078;2023-04-24T13:07:42;5.85;;;3.10;;
20391;SDS011;10355;53.688;10.078;2023-04-24T13:10:24;9.10;;;3.67;;
20391;SDS011;10355;53.688;10.078;2023-04-24T13:13:08;5.95;;;3.63;;
20391;SDS011;10355;53.688;10.078;2023-04-24T13:15:51;4.35;;;3.20;;
20391;SDS011;10355;53.688;10.078;2023-04-24T13:18:34;4.28;;;2.80;;
20391;SDS011;10355;53.688;10.078;2023-04-24T13:21:17;4.00;;;3.08;;
20391;SDS011;10355;53.688;10.078;2023-04-24T13:24:00;4.78;;;2.80;;
20391;SDS011;10355;53.688;10.078;2023-04-24T13:26:43;4.80;;;3.42;;
20391;SDS011;10355;53.688;10.078;2023-04-24T13:29:27;4.30;;;2.90;;
20391;SDS011;10355;53.688;10.078;2023-04-24T13:32:10;4.75;;;3.55;;
20391;SDS011;10355;53.688;10.078;2023-04-24T13:34:52;4.45;;;2.90;;
20391;SDS011;10355;53.688;10.078;2023-04-24T13:37:35;5.95;;;3.10;;
20391;SDS011;10355;53.688;10.078;2023-04-24T13:40:18;3.50;;;2.78;;
20391;SDS011;10355;53.688;10.078;2023-04-24T13:43:01;6.13;;;3.45;;
20391;SDS011;10355;53.688;10.078;2023-04-24T13:45:45;3.97;;;3.00;;
20391;SDS011;10355;53.688;10.078;2023-04-24T13:48:28;4.20;;;3.00;;
20391;SDS011;10355;53.688;10.078;2023-04-24T13:51:10;4.43;;;3.20;;
20391;SDS011;10355;53.688;10.078;2023-04-24T13:53:53;4.03;;;3.10;;
20391;SDS011;10355;53.688;10.078;2023-04-24T13:56:36;3.65;;;2.80;;
20391;SDS011;10355;53.688;10.078;2023-04-24T13:59:19;6.05;;;2.80;;
20391;SDS011;10355;53.688;10.078;2023-04-24T14:02:03;3.80;;;2.67;;
20391;SDS011;10355;53.688;10.078;2023-04-24T14:04:46;5.38;;;2.85;;
20391;SDS011;10355;53.688;10.078;2023-04-24T14:07:32;4.97;;;2.95;;
20391;SDS011;10355;53.688;10.078;2023-04-24T14:10:16;4.97;;;3.22;;
20391;SDS011;10355;53.688;10.078;2023-04-24T14:12:58;2.65;;;2.38;;
20391;SDS011;10355;53.688;10.078;2023-04-24T14:15:43;4.15;;;2.60;;
20391;SDS011;10355;53.688;10.078;2023-04-24T14:18:27;3.85;;;2.67;;
20391;SDS011;10355;53.688;10.078;2023-04-24T14:21:10;3.63;;;2.70;;
20391;SDS011;10355;53.688;10.078;2023-04-24T14:23:52;4.80;;;2.90;;
20391;SDS011;10355;53.688;10.078;2023-04-24T14:26:35;2.92;;;2.58;;
20391;SDS011;10355;53.688;10.078;2023-04-24T14:29:18;3.80;;;3.05;;
20391;SDS011;10355;53.688;10.078;2023-04-24T14:32:01;4.50;;;3.00;;
20391;SDS011;10355;53.688;10.078;2023-04-24T14:34:45;3.40;;;3.00;;
20391;SDS011;10355;53.688;10.078;2023-04-24T14:37:27;4.30;;;3.00;;
20391;SDS011;10355;53.688;10.078;2023-04-24T14:40:10;5.75;;;2.90;;
20391;SDS011;10355;53.688;10.078;2023-04-24T14:43:13;3.42;;;2.50;;
20391;SDS011;10355;53.688;10.078;2023-04-24T14:45:56;3.95;;;2.67;;
20391;SDS011;10355;53.688;10.078;2023-04-24T14:48:38;3.60;;;2.75;;
20391;SDS011;10355;53.688;10.078;2023-04-24T14:51:22;3.60;;;2.83;;
20391;SDS011;10355;53.688;10.078;2023-04-24T14:54:05;4.90;;;3.38;;
20391;SDS011;10355;53.688;10.078;2023-04-24T14:56:48;4.68;;;3.63;;
20391;SDS011;10355;53.688;10.078;2023-04-24T14:59:31;4.40;;;3.50;;
20391;SDS011;10355;53.688;10.078;2023-04-24T15:02:13;4.68;;;3.20;;
20391;SDS011;10355;53.688;10.078;2023-04-24T15:04:58;4.95;;;3.47;;
20391;SDS011;10355;53.688;10.078;2023-04-24T15:07:44;5.57;;;3.80;;
20391;SDS011;10355;53.688;10.078;2023-04-24T15:10:27;4.47;;;3.55;;
20391;SDS011;10355;53.688;10.078;2023-04-24T15:13:10;7.15;;;4.03;;
20391;SDS011;10355;53.688;10.078;2023-04-24T15:15:53;6.25;;;3.83;;
20391;SDS011;10355;53.688;10.078;2023-04-24T15:18:36;5.40;;;3.80;;
20391;SDS011;10355;53.688;10.078;2023-04-24T15:21:19;4.90;;;4.05;;
20391;SDS011;10355;53.688;10.078;2023-04-24T15:24:03;4.72;;;3.70;;
20391;SDS011;10355;53.688;10.078;2023-04-24T15:26:46;6.55;;;3.80;;
20391;SDS011;10355;53.688;10.078;2023-04-24T15:29:28;3.60;;;3.08;;
20391;SDS011;10355;53.688;10.078;2023-04-24T15:32:11;3.38;;;3.08;;
20391;SDS011;10355;53.688;10.078;2023-04-24T15:34:54;3.10;;;2.80;;
20391;SDS011;10355;53.688;10.078;2023-04-24T15:37:49;2.92;;;2.50;;
20391;SDS011;10355;53.688;10.078;2023-04-24T15:40:33;3.70;;;2.75;;
20391;SDS011;10355;53.688;10.078;2023-04-24T15:43:16;2.95;;;2.55;;
20391;SDS011;10355;53.688;10.078;2023-04-24T15:45:58;3.25;;;2.03;;
20391;SDS011;10355;53.688;10.078;2023-04-24T15:48:41;1.10;;;0.80;;
20391;SDS011;10355;53.688;10.078;2023-04-24T15:51:24;1.08;;;0.98;;
20391;SDS011;10355;53.688;10.078;2023-04-24T15:54:08;1.60;;;1.10;;
20391;SDS011;10355;53.688;10.078;2023-04-24T15:56:52;1.45;;;0.90;;
20391;SDS011;10355;53.688;10.078;2023-04-24T15:59:34;0.95;;;0.90;;
20391;SDS011;10355;53.688;10.078;2023-04-24T16:02:17;0.98;;;0.88;;
20391;SDS011;10355;53.688;10.078;2023-04-24T16:05:01;1.23;;;0.85;;
20391;SDS011;10355;53.688;10.078;2023-04-24T16:07:44;3.58;;;1.30;;
20391;SDS011;10355;53.688;10.078;2023-04-24T16:10:26;1.92;;;1.35;;
20391;SDS011;10355;53.688;10.078;2023-04-24T16:13:11;2.17;;;1.48;;
20391;SDS011;10355;53.688;10.078;2023-04-24T16:15:53;3.03;;;1.70;;